Aviation Digital Data Service (ADDS)

Output produced by METARs form (1521 UTC 20 March 2019)
found at http://www.aviationweather.gov/metar/data/
 
Forecast for: PTKK (WENO IS/CHUUK , FM)
Text: PTKK 201120Z 2012/2112 08007KT P6SM -SHRA SCT012 OVC120
Forecast period: 1200 to 1500 UTC 20 March 2019
Forecast type: FROM: standard forecast or significant change
Winds: from the E (80 degrees) at 8 MPH (7 knots; 3.6 m/s)
Visibility: 6 or more miles 10+ km)
Ceiling: 12000 feet AGL
Clouds: scattered clouds at 1200 feet AGL
overcast cloud deck at 12000 feet AGL
Weather: -SHRA  (light rain showers)
Text: FM201500 10008KT P6SM VCSH SCT014 BKN120
Forecast period: 1500 UTC 20 March 2019 to 1200 UTC 21 March 2019
Forecast type: FROM: standard forecast or significant change
Winds: from the E (100 degrees) at 9 MPH (8 knots; 4.1 m/s)
Visibility: 6 or more miles 10+ km)
Ceiling: 12000 feet AGL
Clouds: scattered clouds at 1400 feet AGL
broken clouds at 12000 feet AGL
Weather: VCSH  (showers in vicinity)